KOCW Airport (Washington-Warren) Information

FAA: OCW - ICAO: KOCW

KOCW Airport Location

State North Carolina
County Beaufort
City Washington
KOCW Airport is 0 miles northeast of Washington, NC.
Latitude 35-34-13.7000N
Longitude 077-02-59.3000W
Elevation 37ft

KOCW Airport METARs

METAR KOCW 161915Z AUTO 33005KT 10SM SCT018 SCT030 SCT070 26/24 A3003 RMK AO2 T02620238
Altimeter 30.03"
Temperature 26.2°C (79.2°F)
Wind 330° at 5KT
Clouds scattered at 1,800ft scattered at 3,000ft scattered at 7,000ft
Visibility 10.0mi
Time observed: 2021-09-16T19:15:00Z

KOCW Airport Details

Status Operational
Activation July 1942
Ownership Public
Usage Public
Chart CHARLOTTE
ATC on-site No
Beacon schedule sunset-sunrise
Beacon color clear green

KOCW Airport Contacts

Owner CITY OF WASHINGTON
Owner address PO BOX 1988, WASHINGTON, NC 27889
Owner phone 252-975-9302
Manager DEAN COSMOS
Manager address VIDANT EDGECOMBE HOSPITAL, 111 HOSPITAL DRIVE, TARBORO, NC 27886
Manager phone 252-641-7142

KOCW Airport (Washington-Warren) Radio Frequencies

KOCW (Airport) Radio Frequencies

UNICOM 122.7
Common traffic advisory frequency (CTAF) 122.7